sensor_id;sensor_type;location;lat;lon;timestamp;P1;durP1;ratioP1;P2;durP2;ratioP2
74593;SDS011;63097;51.872;4.460;2023-05-07T00:00:50;16.38;;;11.95;;
74593;SDS011;63097;51.872;4.460;2023-05-07T00:03:15;17.70;;;13.45;;
74593;SDS011;63097;51.872;4.460;2023-05-07T00:05:41;23.30;;;14.13;;
74593;SDS011;63097;51.872;4.460;2023-05-07T00:08:06;21.27;;;13.18;;
74593;SDS011;63097;51.872;4.460;2023-05-07T00:10:31;22.70;;;15.07;;
74593;SDS011;63097;51.872;4.460;2023-05-07T00:12:57;22.55;;;13.95;;
74593;SDS011;63097;51.872;4.460;2023-05-07T00:15:22;25.00;;;15.63;;
74593;SDS011;63097;51.872;4.460;2023-05-07T00:17:47;32.67;;;22.50;;
74593;SDS011;63097;51.872;4.460;2023-05-07T00:20:13;41.00;;;25.67;;
74593;SDS011;63097;51.872;4.460;2023-05-07T00:22:38;32.85;;;22.95;;
74593;SDS011;63097;51.872;4.460;2023-05-07T00:25:04;30.42;;;17.38;;
74593;SDS011;63097;51.872;4.460;2023-05-07T00:27:29;29.15;;;18.13;;
74593;SDS011;63097;51.872;4.460;2023-05-07T00:29:55;27.02;;;18.52;;
74593;SDS011;63097;51.872;4.460;2023-05-07T00:32:20;32.50;;;19.55;;
74593;SDS011;63097;51.872;4.460;2023-05-07T00:34:45;31.25;;;20.48;;
74593;SDS011;63097;51.872;4.460;2023-05-07T00:37:11;33.70;;;21.98;;
74593;SDS011;63097;51.872;4.460;2023-05-07T00:39:36;31.27;;;21.65;;
74593;SDS011;63097;51.872;4.460;2023-05-07T00:42:01;35.85;;;22.83;;
74593;SDS011;63097;51.872;4.460;2023-05-07T00:44:27;34.10;;;22.75;;
74593;SDS011;63097;51.872;4.460;2023-05-07T00:46:53;33.75;;;22.67;;
74593;SDS011;63097;51.872;4.460;2023-05-07T00:49:19;36.65;;;23.77;;
74593;SDS011;63097;51.872;4.460;2023-05-07T00:51:45;37.65;;;24.63;;
74593;SDS011;63097;51.872;4.460;2023-05-07T00:54:10;34.88;;;24.30;;
74593;SDS011;63097;51.872;4.460;2023-05-07T00:56:36;34.53;;;25.10;;
74593;SDS011;63097;51.872;4.460;2023-05-07T00:59:02;37.70;;;24.48;;
74593;SDS011;63097;51.872;4.460;2023-05-07T01:01:28;40.40;;;26.23;;
74593;SDS011;63097;51.872;4.460;2023-05-07T01:03:53;42.03;;;25.60;;
74593;SDS011;63097;51.872;4.460;2023-05-07T01:06:18;40.47;;;25.77;;
74593;SDS011;63097;51.872;4.460;2023-05-07T01:08:46;38.97;;;26.23;;
74593;SDS011;63097;51.872;4.460;2023-05-07T01:11:11;38.13;;;26.02;;
74593;SDS011;63097;51.872;4.460;2023-05-07T01:13:37;37.58;;;25.83;;
74593;SDS011;63097;51.872;4.460;2023-05-07T01:16:03;38.08;;;25.83;;
74593;SDS011;63097;51.872;4.460;2023-05-07T01:18:29;41.55;;;26.80;;
74593;SDS011;63097;51.872;4.460;2023-05-07T01:20:55;36.30;;;25.90;;
74593;SDS011;63097;51.872;4.460;2023-05-07T01:23:23;37.15;;;26.63;;
74593;SDS011;63097;51.872;4.460;2023-05-07T01:25:53;38.78;;;26.30;;
74593;SDS011;63097;51.872;4.460;2023-05-07T01:28:19;39.15;;;25.27;;
74593;SDS011;63097;51.872;4.460;2023-05-07T01:30:46;34.33;;;25.83;;
74593;SDS011;63097;51.872;4.460;2023-05-07T01:33:15;36.42;;;26.40;;
74593;SDS011;63097;51.872;4.460;2023-05-07T01:35:45;38.40;;;25.80;;
74593;SDS011;63097;51.872;4.460;2023-05-07T01:38:13;38.75;;;25.60;;
74593;SDS011;63097;51.872;4.460;2023-05-07T01:40:39;35.58;;;25.20;;
74593;SDS011;63097;51.872;4.460;2023-05-07T01:43:05;33.90;;;24.90;;
74593;SDS011;63097;51.872;4.460;2023-05-07T01:45:31;38.58;;;24.05;;
74593;SDS011;63097;51.872;4.460;2023-05-07T01:47:58;34.50;;;23.92;;
74593;SDS011;63097;51.872;4.460;2023-05-07T01:50:23;35.15;;;24.55;;
74593;SDS011;63097;51.872;4.460;2023-05-07T01:52:50;33.17;;;22.65;;
74593;SDS011;63097;51.872;4.460;2023-05-07T01:55:16;32.15;;;21.88;;
74593;SDS011;63097;51.872;4.460;2023-05-07T01:57:41;38.78;;;22.77;;
74593;SDS011;63097;51.872;4.460;2023-05-07T02:00:07;32.60;;;21.98;;
74593;SDS011;63097;51.872;4.460;2023-05-07T02:02:32;30.13;;;20.90;;
74593;SDS011;63097;51.872;4.460;2023-05-07T02:04:58;31.27;;;20.63;;
74593;SDS011;63097;51.872;4.460;2023-05-07T02:07:24;30.48;;;20.55;;
74593;SDS011;63097;51.872;4.460;2023-05-07T02:09:49;31.65;;;21.33;;
74593;SDS011;63097;51.872;4.460;2023-05-07T02:12:14;32.75;;;19.77;;
74593;SDS011;63097;51.872;4.460;2023-05-07T02:14:39;30.60;;;19.65;;
74593;SDS011;63097;51.872;4.460;2023-05-07T02:17:05;26.50;;;18.27;;
74593;SDS011;63097;51.872;4.460;2023-05-07T02:19:30;25.60;;;18.27;;
74593;SDS011;63097;51.872;4.460;2023-05-07T02:21:55;23.63;;;18.17;;
74593;SDS011;63097;51.872;4.460;2023-05-07T02:24:21;26.17;;;17.35;;
74593;SDS011;63097;51.872;4.460;2023-05-07T02:26:46;22.83;;;16.00;;
74593;SDS011;63097;51.872;4.460;2023-05-07T02:29:11;22.08;;;16.45;;
74593;SDS011;63097;51.872;4.460;2023-05-07T02:31:37;22.88;;;15.82;;
74593;SDS011;63097;51.872;4.460;2023-05-07T02:34:02;23.90;;;15.43;;
74593;SDS011;63097;51.872;4.460;2023-05-07T02:36:27;21.67;;;14.60;;
74593;SDS011;63097;51.872;4.460;2023-05-07T02:38:53;18.17;;;14.32;;
74593;SDS011;63097;51.872;4.460;2023-05-07T02:41:18;20.77;;;13.73;;
74593;SDS011;63097;51.872;4.460;2023-05-07T02:43:44;18.83;;;14.13;;
74593;SDS011;63097;51.872;4.460;2023-05-07T02:46:09;21.70;;;13.63;;
74593;SDS011;63097;51.872;4.460;2023-05-07T02:48:34;17.73;;;12.93;;
74593;SDS011;63097;51.872;4.460;2023-05-07T02:51:00;23.17;;;12.65;;
74593;SDS011;63097;51.872;4.460;2023-05-07T02:53:26;16.48;;;12.43;;
74593;SDS011;63097;51.872;4.460;2023-05-07T02:55:52;17.98;;;12.50;;
74593;SDS011;63097;51.872;4.460;2023-05-07T02:58:18;14.85;;;11.60;;
74593;SDS011;63097;51.872;4.460;2023-05-07T03:00:43;19.58;;;11.23;;
74593;SDS011;63097;51.872;4.460;2023-05-07T03:03:09;18.50;;;11.43;;
74593;SDS011;63097;51.872;4.460;2023-05-07T03:05:34;16.23;;;11.52;;
74593;SDS011;63097;51.872;4.460;2023-05-07T03:07:59;19.45;;;11.55;;
74593;SDS011;63097;51.872;4.460;2023-05-07T03:10:25;14.65;;;11.40;;
74593;SDS011;63097;51.872;4.460;2023-05-07T03:12:50;18.38;;;11.23;;
74593;SDS011;63097;51.872;4.460;2023-05-07T03:15:15;16.00;;;11.07;;
74593;SDS011;63097;51.872;4.460;2023-05-07T03:17:41;17.67;;;10.63;;
74593;SDS011;63097;51.872;4.460;2023-05-07T03:20:06;16.85;;;11.95;;
74593;SDS011;63097;51.872;4.460;2023-05-07T03:22:32;14.75;;;11.32;;
74593;SDS011;63097;51.872;4.460;2023-05-07T03:24:57;16.33;;;10.90;;
74593;SDS011;63097;51.872;4.460;2023-05-07T03:27:23;16.92;;;11.18;;
74593;SDS011;63097;51.872;4.460;2023-05-07T03:29:48;15.07;;;10.95;;
74593;SDS011;63097;51.872;4.460;2023-05-07T03:32:13;14.75;;;11.00;;
74593;SDS011;63097;51.872;4.460;2023-05-07T03:34:39;14.63;;;10.88;;
74593;SDS011;63097;51.872;4.460;2023-05-07T03:37:04;15.98;;;10.70;;
74593;SDS011;63097;51.872;4.460;2023-05-07T03:39:29;13.35;;;10.57;;
74593;SDS011;63097;51.872;4.460;2023-05-07T03:41:55;13.55;;;10.63;;
74593;SDS011;63097;51.872;4.460;2023-05-07T03:44:20;16.13;;;10.77;;
74593;SDS011;63097;51.872;4.460;2023-05-07T03:46:45;15.73;;;10.18;;
74593;SDS011;63097;51.872;4.460;2023-05-07T03:49:10;15.82;;;10.48;;
74593;SDS011;63097;51.872;4.460;2023-05-07T03:51:36;14.43;;;10.07;;
74593;SDS011;63097;51.872;4.460;2023-05-07T03:54:01;15.55;;;9.95;;
74593;SDS011;63097;51.872;4.460;2023-05-07T03:56:26;14.88;;;10.20;;
74593;SDS011;63097;51.872;4.460;2023-05-07T03:58:52;14.20;;;9.85;;
74593;SDS011;63097;51.872;4.460;2023-05-07T04:01:17;10.77;;;9.05;;
74593;SDS011;63097;51.872;4.460;2023-05-07T04:03:42;13.45;;;10.00;;
74593;SDS011;63097;51.872;4.460;2023-05-07T04:06:08;15.35;;;10.50;;
74593;SDS011;63097;51.872;4.460;2023-05-07T04:08:33;13.68;;;9.43;;
74593;SDS011;63097;51.872;4.460;2023-05-07T04:10:58;13.55;;;10.05;;
74593;SDS011;63097;51.872;4.460;2023-05-07T04:13:24;17.15;;;10.35;;
74593;SDS011;63097;51.872;4.460;2023-05-07T04:15:50;16.05;;;10.05;;
74593;SDS011;63097;51.872;4.460;2023-05-07T04:18:16;13.65;;;10.13;;
74593;SDS011;63097;51.872;4.460;2023-05-07T04:20:41;13.57;;;10.13;;
74593;SDS011;63097;51.872;4.460;2023-05-07T04:23:07;10.95;;;9.48;;
74593;SDS011;63097;51.872;4.460;2023-05-07T04:25:32;19.42;;;10.05;;
74593;SDS011;63097;51.872;4.460;2023-05-07T04:27:58;16.90;;;9.57;;
74593;SDS011;63097;51.872;4.460;2023-05-07T04:30:23;13.77;;;9.82;;
74593;SDS011;63097;51.872;4.460;2023-05-07T04:32:49;13.48;;;9.27;;
74593;SDS011;63097;51.872;4.460;2023-05-07T04:35:14;14.55;;;9.32;;
74593;SDS011;63097;51.872;4.460;2023-05-07T04:37:39;14.57;;;9.70;;
74593;SDS011;63097;51.872;4.460;2023-05-07T04:40:05;14.95;;;10.85;;
74593;SDS011;63097;51.872;4.460;2023-05-07T04:42:30;16.65;;;10.20;;
74593;SDS011;63097;51.872;4.460;2023-05-07T04:44:56;13.38;;;9.75;;
74593;SDS011;63097;51.872;4.460;2023-05-07T04:47:21;14.93;;;10.10;;
74593;SDS011;63097;51.872;4.460;2023-05-07T04:49:46;14.95;;;10.13;;
74593;SDS011;63097;51.872;4.460;2023-05-07T04:52:12;14.90;;;9.68;;
74593;SDS011;63097;51.872;4.460;2023-05-07T04:54:37;17.08;;;10.00;;
74593;SDS011;63097;51.872;4.460;2023-05-07T04:57:05;12.95;;;9.32;;
74593;SDS011;63097;51.872;4.460;2023-05-07T04:59:30;15.77;;;9.68;;
74593;SDS011;63097;51.872;4.460;2023-05-07T05:01:57;16.00;;;10.18;;
74593;SDS011;63097;51.872;4.460;2023-05-07T05:04:22;14.57;;;9.93;;
74593;SDS011;63097;51.872;4.460;2023-05-07T05:06:47;13.18;;;9.48;;
74593;SDS011;63097;51.872;4.460;2023-05-07T05:09:13;15.05;;;10.30;;
74593;SDS011;63097;51.872;4.460;2023-05-07T05:11:38;16.52;;;9.85;;
74593;SDS011;63097;51.872;4.460;2023-05-07T05:14:03;13.27;;;9.30;;
74593;SDS011;63097;51.872;4.460;2023-05-07T05:16:29;12.88;;;9.68;;
74593;SDS011;63097;51.872;4.460;2023-05-07T05:18:54;14.38;;;9.68;;
74593;SDS011;63097;51.872;4.460;2023-05-07T05:21:20;17.10;;;9.95;;
74593;SDS011;63097;51.872;4.460;2023-05-07T05:23:45;19.73;;;10.30;;
74593;SDS011;63097;51.872;4.460;2023-05-07T05:26:11;12.90;;;9.75;;
74593;SDS011;63097;51.872;4.460;2023-05-07T05:28:36;15.82;;;9.45;;
74593;SDS011;63097;51.872;4.460;2023-05-07T05:31:01;12.20;;;9.02;;
74593;SDS011;63097;51.872;4.460;2023-05-07T05:33:26;18.05;;;9.65;;
74593;SDS011;63097;51.872;4.460;2023-05-07T05:35:53;14.23;;;9.43;;
74593;SDS011;63097;51.872;4.460;2023-05-07T05:38:19;14.38;;;10.35;;
74593;SDS011;63097;51.872;4.460;2023-05-07T05:40:44;11.80;;;9.05;;
74593;SDS011;63097;51.872;4.460;2023-05-07T05:43:09;16.17;;;9.77;;
74593;SDS011;63097;51.872;4.460;2023-05-07T05:45:35;12.32;;;9.45;;
74593;SDS011;63097;51.872;4.460;2023-05-07T05:48:00;14.95;;;9.90;;
74593;SDS011;63097;51.872;4.460;2023-05-07T05:50:25;17.73;;;10.63;;
74593;SDS011;63097;51.872;4.460;2023-05-07T05:52:51;17.52;;;10.18;;
74593;SDS011;63097;51.872;4.460;2023-05-07T05:55:16;16.75;;;10.75;;
74593;SDS011;63097;51.872;4.460;2023-05-07T05:57:41;17.92;;;10.95;;
74593;SDS011;63097;51.872;4.460;2023-05-07T06:00:07;21.63;;;10.82;;
74593;SDS011;63097;51.872;4.460;2023-05-07T06:02:33;17.65;;;10.65;;
74593;SDS011;63097;51.872;4.460;2023-05-07T06:04:58;20.35;;;11.02;;
74593;SDS011;63097;51.872;4.460;2023-05-07T06:07:24;13.60;;;10.20;;
74593;SDS011;63097;51.872;4.460;2023-05-07T06:09:50;16.90;;;10.88;;
74593;SDS011;63097;51.872;4.460;2023-05-07T06:12:15;14.23;;;10.50;;
74593;SDS011;63097;51.872;4.460;2023-05-07T06:14:42;17.08;;;11.90;;
74593;SDS011;63097;51.872;4.460;2023-05-07T06:17:08;15.10;;;10.50;;
74593;SDS011;63097;51.872;4.460;2023-05-07T06:19:33;14.50;;;10.65;;
74593;SDS011;63097;51.872;4.460;2023-05-07T06:21:58;22.23;;;11.73;;
74593;SDS011;63097;51.872;4.460;2023-05-07T06:24:24;18.55;;;11.35;;
74593;SDS011;63097;51.872;4.460;2023-05-07T06:26:49;14.48;;;11.35;;
74593;SDS011;63097;51.872;4.460;2023-05-07T06:29:14;15.90;;;10.95;;
74593;SDS011;63097;51.872;4.460;2023-05-07T06:31:40;21.42;;;11.90;;
74593;SDS011;63097;51.872;4.460;2023-05-07T06:34:05;15.35;;;11.93;;
74593;SDS011;63097;51.872;4.460;2023-05-07T06:36:30;13.27;;;10.63;;
74593;SDS011;63097;51.872;4.460;2023-05-07T06:38:56;16.88;;;11.10;;
74593;SDS011;63097;51.872;4.460;2023-05-07T06:41:21;18.15;;;10.55;;
74593;SDS011;63097;51.872;4.460;2023-05-07T06:43:46;15.20;;;9.80;;
74593;SDS011;63097;51.872;4.460;2023-05-07T06:46:12;16.95;;;10.50;;
74593;SDS011;63097;51.872;4.460;2023-05-07T06:48:37;12.25;;;9.88;;
74593;SDS011;63097;51.872;4.460;2023-05-07T06:51:02;17.15;;;10.18;;
74593;SDS011;63097;51.872;4.460;2023-05-07T06:53:28;16.48;;;10.52;;
74593;SDS011;63097;51.872;4.460;2023-05-07T06:55:53;16.25;;;9.90;;
74593;SDS011;63097;51.872;4.460;2023-05-07T06:58:19;13.57;;;9.80;;
74593;SDS011;63097;51.872;4.460;2023-05-07T07:00:44;11.82;;;9.82;;
74593;SDS011;63097;51.872;4.460;2023-05-07T07:03:09;12.38;;;9.35;;
74593;SDS011;63097;51.872;4.460;2023-05-07T07:05:35;12.55;;;9.85;;
74593;SDS011;63097;51.872;4.460;2023-05-07T07:08:00;16.50;;;10.98;;
74593;SDS011;63097;51.872;4.460;2023-05-07T07:10:25;13.23;;;10.27;;
74593;SDS011;63097;51.872;4.460;2023-05-07T07:12:51;15.50;;;10.80;;
74593;SDS011;63097;51.872;4.460;2023-05-07T07:15:16;17.88;;;10.48;;
74593;SDS011;63097;51.872;4.460;2023-05-07T07:17:41;15.57;;;9.77;;
74593;SDS011;63097;51.872;4.460;2023-05-07T07:20:07;14.00;;;10.07;;
74593;SDS011;63097;51.872;4.460;2023-05-07T07:22:33;14.18;;;9.98;;
74593;SDS011;63097;51.872;4.460;2023-05-07T07:24:58;14.43;;;10.15;;
74593;SDS011;63097;51.872;4.460;2023-05-07T07:27:23;19.30;;;9.70;;
74593;SDS011;63097;51.872;4.460;2023-05-07T07:29:49;16.05;;;9.77;;
74593;SDS011;63097;51.872;4.460;2023-05-07T07:32:14;13.93;;;10.25;;
74593;SDS011;63097;51.872;4.460;2023-05-07T07:34:39;17.92;;;9.95;;
74593;SDS011;63097;51.872;4.460;2023-05-07T07:37:05;14.48;;;9.88;;
74593;SDS011;63097;51.872;4.460;2023-05-07T07:39:30;16.90;;;9.60;;
74593;SDS011;63097;51.872;4.460;2023-05-07T07:41:56;16.63;;;9.77;;
74593;SDS011;63097;51.872;4.460;2023-05-07T07:44:22;12.10;;;9.10;;
74593;SDS011;63097;51.872;4.460;2023-05-07T07:46:47;12.38;;;8.32;;
74593;SDS011;63097;51.872;4.460;2023-05-07T07:49:12;13.52;;;8.95;;
74593;SDS011;63097;51.872;4.460;2023-05-07T07:51:38;9.77;;;7.95;;
74593;SDS011;63097;51.872;4.460;2023-05-07T07:54:03;13.27;;;7.82;;
74593;SDS011;63097;51.872;4.460;2023-05-07T07:56:28;12.60;;;8.07;;
74593;SDS011;63097;51.872;4.460;2023-05-07T07:58:54;12.05;;;8.10;;
74593;SDS011;63097;51.872;4.460;2023-05-07T08:01:19;12.75;;;8.85;;
74593;SDS011;63097;51.872;4.460;2023-05-07T08:03:44;10.80;;;7.78;;
74593;SDS011;63097;51.872;4.460;2023-05-07T08:06:09;12.20;;;7.65;;
74593;SDS011;63097;51.872;4.460;2023-05-07T08:08:35;15.18;;;8.38;;
74593;SDS011;63097;51.872;4.460;2023-05-07T08:11:00;13.20;;;7.95;;
74593;SDS011;63097;51.872;4.460;2023-05-07T08:13:26;10.65;;;7.88;;
74593;SDS011;63097;51.872;4.460;2023-05-07T08:15:51;15.98;;;7.57;;
74593;SDS011;63097;51.872;4.460;2023-05-07T08:18:16;13.00;;;8.00;;
74593;SDS011;63097;51.872;4.460;2023-05-07T08:20:41;15.40;;;8.05;;
74593;SDS011;63097;51.872;4.460;2023-05-07T08:23:07;17.38;;;8.07;;
74593;SDS011;63097;51.872;4.460;2023-05-07T08:25:33;13.18;;;7.80;;
74593;SDS011;63097;51.872;4.460;2023-05-07T08:27:59;9.93;;;7.10;;
74593;SDS011;63097;51.872;4.460;2023-05-07T08:30:24;17.55;;;8.20;;
74593;SDS011;63097;51.872;4.460;2023-05-07T08:32:49;13.50;;;7.47;;
74593;SDS011;63097;51.872;4.460;2023-05-07T08:35:15;17.67;;;8.32;;
74593;SDS011;63097;51.872;4.460;2023-05-07T08:37:40;16.80;;;8.27;;
74593;SDS011;63097;51.872;4.460;2023-05-07T08:40:05;16.77;;;8.20;;
74593;SDS011;63097;51.872;4.460;2023-05-07T08:42:31;13.95;;;8.07;;
74593;SDS011;63097;51.872;4.460;2023-05-07T08:45:00;11.55;;;7.10;;
74593;SDS011;63097;51.872;4.460;2023-05-07T08:47:29;11.07;;;5.43;;
74593;SDS011;63097;51.872;4.460;2023-05-07T08:49:59;9.27;;;5.78;;
74593;SDS011;63097;51.872;4.460;2023-05-07T08:52:24;10.18;;;5.60;;
74593;SDS011;63097;51.872;4.460;2023-05-07T08:54:51;10.18;;;4.93;;
74593;SDS011;63097;51.872;4.460;2023-05-07T08:57:16;8.05;;;4.15;;
74593;SDS011;63097;51.872;4.460;2023-05-07T08:59:42;15.70;;;4.78;;
74593;SDS011;63097;51.872;4.460;2023-05-07T09:02:07;9.35;;;5.25;;
74593;SDS011;63097;51.872;4.460;2023-05-07T09:04:35;8.95;;;5.57;;
74593;SDS011;63097;51.872;4.460;2023-05-07T09:07:00;8.27;;;5.60;;
74593;SDS011;63097;51.872;4.460;2023-05-07T09:09:25;11.07;;;5.50;;
74593;SDS011;63097;51.872;4.460;2023-05-07T09:11:56;9.45;;;5.85;;
74593;SDS011;63097;51.872;4.460;2023-05-07T09:14:22;7.72;;;5.80;;
74593;SDS011;63097;51.872;4.460;2023-05-07T09:16:47;14.95;;;6.95;;
74593;SDS011;63097;51.872;4.460;2023-05-07T09:19:12;10.82;;;7.05;;
74593;SDS011;63097;51.872;4.460;2023-05-07T09:21:37;13.85;;;6.90;;
74593;SDS011;63097;51.872;4.460;2023-05-07T09:24:03;11.57;;;7.40;;
74593;SDS011;63097;51.872;4.460;2023-05-07T09:26:28;15.25;;;7.38;;
74593;SDS011;63097;51.872;4.460;2023-05-07T09:28:54;12.80;;;6.35;;
74593;SDS011;63097;51.872;4.460;2023-05-07T09:31:19;11.48;;;6.57;;
74593;SDS011;63097;51.872;4.460;2023-05-07T09:33:45;12.27;;;6.50;;
74593;SDS011;63097;51.872;4.460;2023-05-07T09:36:10;11.05;;;6.90;;
74593;SDS011;63097;51.872;4.460;2023-05-07T09:38:36;12.00;;;6.07;;
74593;SDS011;63097;51.872;4.460;2023-05-07T09:41:09;11.88;;;5.70;;
74593;SDS011;63097;51.872;4.460;2023-05-07T09:43:38;11.55;;;5.85;;
74593;SDS011;63097;51.872;4.460;2023-05-07T09:46:09;9.52;;;5.57;;
74593;SDS011;63097;51.872;4.460;2023-05-07T09:48:37;8.93;;;5.78;;
74593;SDS011;63097;51.872;4.460;2023-05-07T09:51:05;8.38;;;5.10;;
74593;SDS011;63097;51.872;4.460;2023-05-07T09:53:36;8.35;;;5.32;;
74593;SDS011;63097;51.872;4.460;2023-05-07T09:56:02;8.70;;;6.00;;
74593;SDS011;63097;51.872;4.460;2023-05-07T09:58:28;10.48;;;5.38;;
74593;SDS011;63097;51.872;4.460;2023-05-07T10:00:55;14.35;;;4.63;;
74593;SDS011;63097;51.872;4.460;2023-05-07T10:03:22;10.15;;;5.15;;
74593;SDS011;63097;51.872;4.460;2023-05-07T10:05:49;10.23;;;5.88;;
74593;SDS011;63097;51.872;4.460;2023-05-07T10:08:15;11.50;;;5.88;;
74593;SDS011;63097;51.872;4.460;2023-05-07T10:10:40;8.68;;;4.45;;
74593;SDS011;63097;51.872;4.460;2023-05-07T10:13:06;9.05;;;4.03;;
74593;SDS011;63097;51.872;4.460;2023-05-07T10:15:32;9.18;;;4.57;;
74593;SDS011;63097;51.872;4.460;2023-05-07T10:17:58;13.23;;;4.60;;
74593;SDS011;63097;51.872;4.460;2023-05-07T10:20:24;10.02;;;4.72;;
74593;SDS011;63097;51.872;4.460;2023-05-07T10:22:50;11.57;;;5.13;;
74593;SDS011;63097;51.872;4.460;2023-05-07T10:25:26;9.63;;;5.00;;
74593;SDS011;63097;51.872;4.460;2023-05-07T10:27:55;11.90;;;6.35;;
74593;SDS011;63097;51.872;4.460;2023-05-07T10:30:26;8.32;;;3.95;;
74593;SDS011;63097;51.872;4.460;2023-05-07T10:33:01;21.85;;;4.85;;
74593;SDS011;63097;51.872;4.460;2023-05-07T10:35:30;8.95;;;4.90;;
74593;SDS011;63097;51.872;4.460;2023-05-07T10:37:57;8.32;;;5.22;;
74593;SDS011;63097;51.872;4.460;2023-05-07T10:40:23;9.40;;;6.07;;
74593;SDS011;63097;51.872;4.460;2023-05-07T10:42:58;11.10;;;6.38;;
74593;SDS011;63097;51.872;4.460;2023-05-07T10:45:30;11.57;;;6.85;;
74593;SDS011;63097;51.872;4.460;2023-05-07T10:50:38;11.30;;;6.20;;
74593;SDS011;63097;51.872;4.460;2023-05-07T10:55:52;10.23;;;5.80;;
74593;SDS011;63097;51.872;4.460;2023-05-07T10:58:43;14.73;;;5.72;;
74593;SDS011;63097;51.872;4.460;2023-05-07T11:01:08;8.10;;;5.90;;
74593;SDS011;63097;51.872;4.460;2023-05-07T11:03:34;11.85;;;6.70;;
74593;SDS011;63097;51.872;4.460;2023-05-07T11:06:09;13.07;;;7.32;;
74593;SDS011;63097;51.872;4.460;2023-05-07T11:12:05;9.77;;;6.13;;
74593;SDS011;63097;51.872;4.460;2023-05-07T11:14:38;11.70;;;6.18;;
74593;SDS011;63097;51.872;4.460;2023-05-07T11:17:06;17.05;;;6.63;;
74593;SDS011;63097;51.872;4.460;2023-05-07T11:19:54;12.95;;;6.78;;
74593;SDS011;63097;51.872;4.460;2023-05-07T11:25:01;13.93;;;7.07;;
74593;SDS011;63097;51.872;4.460;2023-05-07T11:27:27;12.50;;;7.05;;
74593;SDS011;63097;51.872;4.460;2023-05-07T11:29:53;11.70;;;6.70;;
74593;SDS011;63097;51.872;4.460;2023-05-07T11:32:28;11.80;;;7.07;;
74593;SDS011;63097;51.872;4.460;2023-05-07T11:34:55;13.57;;;6.32;;
74593;SDS011;63097;51.872;4.460;2023-05-07T11:37:22;11.50;;;7.28;;
74593;SDS011;63097;51.872;4.460;2023-05-07T11:39:48;9.77;;;6.07;;
74593;SDS011;63097;51.872;4.460;2023-05-07T11:42:33;15.30;;;7.43;;
74593;SDS011;63097;51.872;4.460;2023-05-07T11:44:59;15.13;;;7.32;;
74593;SDS011;63097;51.872;4.460;2023-05-07T11:47:25;14.07;;;8.00;;
74593;SDS011;63097;51.872;4.460;2023-05-07T11:49:52;15.57;;;7.95;;
74593;SDS011;63097;51.872;4.460;2023-05-07T11:52:20;11.20;;;7.53;;
74593;SDS011;63097;51.872;4.460;2023-05-07T11:54:50;16.33;;;7.70;;
74593;SDS011;63097;51.872;4.460;2023-05-07T11:57:19;9.98;;;7.45;;
74593;SDS011;63097;51.872;4.460;2023-05-07T11:59:44;14.40;;;7.75;;
74593;SDS011;63097;51.872;4.460;2023-05-07T12:02:10;12.77;;;7.72;;
74593;SDS011;63097;51.872;4.460;2023-05-07T12:04:35;12.20;;;6.90;;
74593;SDS011;63097;51.872;4.460;2023-05-07T12:07:02;16.50;;;6.38;;
74593;SDS011;63097;51.872;4.460;2023-05-07T12:09:28;15.63;;;6.60;;
74593;SDS011;63097;51.872;4.460;2023-05-07T12:11:53;12.25;;;7.68;;
74593;SDS011;63097;51.872;4.460;2023-05-07T12:14:18;13.43;;;8.02;;
74593;SDS011;63097;51.872;4.460;2023-05-07T12:16:44;14.07;;;9.10;;
74593;SDS011;63097;51.872;4.460;2023-05-07T12:19:10;11.93;;;7.95;;
74593;SDS011;63097;51.872;4.460;2023-05-07T12:21:35;13.10;;;7.45;;
74593;SDS011;63097;51.872;4.460;2023-05-07T12:24:01;14.20;;;7.60;;
74593;SDS011;63097;51.872;4.460;2023-05-07T12:26:27;15.13;;;7.45;;
74593;SDS011;63097;51.872;4.460;2023-05-07T12:28:52;12.25;;;7.00;;
74593;SDS011;63097;51.872;4.460;2023-05-07T12:31:17;11.68;;;7.10;;
74593;SDS011;63097;51.872;4.460;2023-05-07T12:33:43;13.43;;;8.05;;
74593;SDS011;63097;51.872;4.460;2023-05-07T12:36:08;11.98;;;8.20;;
74593;SDS011;63097;51.872;4.460;2023-05-07T12:38:34;15.32;;;7.45;;
74593;SDS011;63097;51.872;4.460;2023-05-07T12:41:04;17.15;;;8.35;;
74593;SDS011;63097;51.872;4.460;2023-05-07T12:43:30;16.40;;;9.60;;
74593;SDS011;63097;51.872;4.460;2023-05-07T12:45:57;21.13;;;11.25;;
74593;SDS011;63097;51.872;4.460;2023-05-07T12:48:25;16.10;;;9.65;;
74593;SDS011;63097;51.872;4.460;2023-05-07T12:50:51;15.95;;;8.68;;
74593;SDS011;63097;51.872;4.460;2023-05-07T12:53:19;17.70;;;8.30;;
74593;SDS011;63097;51.872;4.460;2023-05-07T12:55:47;16.75;;;7.88;;
74593;SDS011;63097;51.872;4.460;2023-05-07T12:58:20;13.00;;;7.80;;
74593;SDS011;63097;51.872;4.460;2023-05-07T13:00:49;23.40;;;7.43;;
74593;SDS011;63097;51.872;4.460;2023-05-07T13:03:22;17.42;;;7.95;;
74593;SDS011;63097;51.872;4.460;2023-05-07T13:05:52;13.02;;;6.40;;
74593;SDS011;63097;51.872;4.460;2023-05-07T13:08:25;12.75;;;6.25;;
74593;SDS011;63097;51.872;4.460;2023-05-07T13:10:53;14.65;;;6.25;;
74593;SDS011;63097;51.872;4.460;2023-05-07T13:13:19;17.98;;;5.85;;
74593;SDS011;63097;51.872;4.460;2023-05-07T13:15:44;10.32;;;5.07;;
74593;SDS011;63097;51.872;4.460;2023-05-07T13:18:10;13.75;;;6.22;;
74593;SDS011;63097;51.872;4.460;2023-05-07T13:20:35;13.77;;;6.70;;
74593;SDS011;63097;51.872;4.460;2023-05-07T13:23:01;13.93;;;7.35;;
74593;SDS011;63097;51.872;4.460;2023-05-07T13:25:26;15.40;;;7.18;;
74593;SDS011;63097;51.872;4.460;2023-05-07T13:27:51;18.38;;;7.57;;
74593;SDS011;63097;51.872;4.460;2023-05-07T13:30:16;14.95;;;7.82;;
74593;SDS011;63097;51.872;4.460;2023-05-07T13:32:42;11.25;;;6.60;;
74593;SDS011;63097;51.872;4.460;2023-05-07T13:35:07;19.77;;;6.55;;
74593;SDS011;63097;51.872;4.460;2023-05-07T13:37:32;14.48;;;7.05;;
74593;SDS011;63097;51.872;4.460;2023-05-07T13:39:58;16.50;;;6.95;;
74593;SDS011;63097;51.872;4.460;2023-05-07T13:42:23;20.52;;;7.45;;
74593;SDS011;63097;51.872;4.460;2023-05-07T13:44:48;13.25;;;7.82;;
74593;SDS011;63097;51.872;4.460;2023-05-07T13:47:14;15.80;;;8.57;;
74593;SDS011;63097;51.872;4.460;2023-05-07T13:49:39;18.85;;;9.05;;
74593;SDS011;63097;51.872;4.460;2023-05-07T13:52:04;16.77;;;9.80;;
74593;SDS011;63097;51.872;4.460;2023-05-07T13:54:30;20.38;;;10.73;;
74593;SDS011;63097;51.872;4.460;2023-05-07T13:56:55;22.90;;;11.77;;
74593;SDS011;63097;51.872;4.460;2023-05-07T13:59:20;22.05;;;10.80;;
74593;SDS011;63097;51.872;4.460;2023-05-07T14:01:45;22.38;;;10.90;;
74593;SDS011;63097;51.872;4.460;2023-05-07T14:04:11;23.80;;;11.07;;
74593;SDS011;63097;51.872;4.460;2023-05-07T14:06:36;22.13;;;10.90;;
74593;SDS011;63097;51.872;4.460;2023-05-07T14:09:02;25.75;;;11.02;;
74593;SDS011;63097;51.872;4.460;2023-05-07T14:11:27;23.08;;;11.23;;
74593;SDS011;63097;51.872;4.460;2023-05-07T14:13:52;25.05;;;11.23;;
74593;SDS011;63097;51.872;4.460;2023-05-07T14:16:18;26.20;;;11.65;;
74593;SDS011;63097;51.872;4.460;2023-05-07T14:18:43;26.38;;;11.55;;
74593;SDS011;63097;51.872;4.460;2023-05-07T14:21:08;23.55;;;12.32;;
74593;SDS011;63097;51.872;4.460;2023-05-07T14:23:33;23.58;;;12.57;;
74593;SDS011;63097;51.872;4.460;2023-05-07T14:25:59;23.48;;;11.48;;
74593;SDS011;63097;51.872;4.460;2023-05-07T14:28:24;30.27;;;12.95;;
74593;SDS011;63097;51.872;4.460;2023-05-07T14:30:49;27.50;;;13.80;;
74593;SDS011;63097;51.872;4.460;2023-05-07T14:33:15;22.70;;;12.45;;